Time;durP1;ratioP1;P1;durP2;ratioP2;P2;SDS_P1;SDS_P2;PMS_P1;PMS_P2;Temp;Humidity;BMP_temperature;BMP_pressure;BME280_temperature;BME280_humidity;BME280_pressure;Samples;Min_cycle;Max_cycle;Signal;HPM_P1;HPM_P2
2023/08/02 00:01:13;;;;;;;3.17;1.38;;;16.10;99.90;;;;;;5070239;28;20036;-49
2023/08/02 00:03:39;;;;;;;4.15;1.33;;;16.70;99.90;;;;;;5069880;28;20020;-51
2023/08/02 00:06:04;;;;;;;4.95;1.17;;;17.20;99.90;;;;;;5069967;28;20029;-47
2023/08/02 00:08:30;;;;;;;3.38;1.60;;;16.40;99.90;;;;;;5069990;28;20032;-53
2023/08/02 00:10:56;;;;;;;5.18;1.17;;;15.90;99.90;;;;;;5070035;28;20020;-51
2023/08/02 00:13:21;;;;;;;5.70;1.30;;;16.20;99.90;;;;;;5069906;28;20443;-53
2023/08/02 00:15:47;;;;;;;2.92;0.95;;;14.00;99.90;;;;;;5069972;28;20050;-54
2023/08/02 00:18:13;;;;;;;4.45;1.20;;;15.70;99.90;;;;;;5070076;28;20350;-48
2023/08/02 00:20:39;;;;;;;1.67;0.90;;;15.70;99.90;;;;;;5070182;28;20016;-52
2023/08/02 00:23:06;;;;;;;7.70;1.48;;;15.40;99.90;;;;;;5069929;28;20094;-47
2023/08/02 00:25:32;;;;;;;3.20;1.13;;;17.20;99.90;;;;;;5069898;28;20535;-46
2023/08/02 00:27:58;;;;;;;3.65;1.10;;;15.70;99.90;;;;;;5069807;28;20512;-49
2023/08/02 00:30:24;;;;;;;2.75;0.80;;;15.60;99.90;;;;;;5070209;28;20024;-49
2023/08/02 00:32:50;;;;;;;6.82;1.25;;;15.60;99.90;;;;;;5069372;28;20074;-52
2023/08/02 00:35:16;;;;;;;2.75;1.23;;;15.60;99.90;;;;;;5069350;28;20420;-48
2023/08/02 00:37:43;;;;;;;2.72;0.95;;;16.30;99.90;;;;;;5069157;28;20037;-49
2023/08/02 00:40:09;;;;;;;3.83;1.20;;;16.80;99.90;;;;;;5069572;28;20032;-46
2023/08/02 00:42:35;;;;;;;1.60;0.82;;;15.90;99.90;;;;;;5069681;28;20106;-50
2023/08/02 00:45:01;;;;;;;1.50;0.93;;;15.80;99.90;;;;;;5069792;28;20283;-52
2023/08/02 00:47:27;;;;;;;2.65;1.10;;;17.10;99.90;;;;;;5069660;28;20569;-54
2023/08/02 00:49:53;;;;;;;4.00;0.80;;;15.90;99.90;;;;;;5069684;28;20103;-50
2023/08/02 00:52:20;;;;;;;3.40;1.02;;;16.00;99.90;;;;;;5069678;28;20082;-53
2023/08/02 00:54:47;;;;;;;3.08;1.02;;;15.90;99.90;;;;;;5069341;28;20024;-48
2023/08/02 00:57:14;;;;;;;1.95;0.63;;;16.10;99.90;;;;;;5069730;28;20047;-48
2023/08/02 00:59:40;;;;;;;1.50;0.80;;;16.10;99.90;;;;;;5069018;28;20485;-50
2023/08/02 01:02:06;;;;;;;2.55;0.70;;;16.90;99.90;;;;;;5069015;28;20024;-48
2023/08/02 01:04:36;;;;;;;2.83;1.00;;;18.00;99.90;;;;;;5068511;28;20025;-46
2023/08/02 01:07:30;;;;;;;1.27;0.57;;;15.10;99.90;;;;;;5067206;28;20016;-50
2023/08/02 01:10:12;;;;;;;3.17;1.15;;;16.10;99.90;;;;;;5066408;28;20059;-46
2023/08/02 01:12:42;;;;;;;2.60;0.77;;;16.50;99.90;;;;;;5068723;28;20032;-47
2023/08/02 01:15:10;;;;;;;1.63;0.68;;;16.90;99.90;;;;;;5068938;28;20028;-52
2023/08/02 01:17:36;;;;;;;1.58;0.77;;;16.50;99.90;;;;;;5055569;28;20020;-52
2023/08/02 01:20:04;;;;;;;3.17;0.50;;;14.70;99.90;;;;;;5068843;28;20104;-48
2023/08/02 01:22:29;;;;;;;3.25;0.60;;;16.80;99.90;;;;;;5068850;28;20021;-48
2023/08/02 01:24:56;;;;;;;1.45;0.55;;;16.90;99.90;;;;;;5067827;28;20119;-48
2023/08/02 01:27:34;;;;;;;1.67;0.60;;;16.70;99.90;;;;;;5069964;28;20037;-49
2023/08/02 01:30:01;;;;;;;1.20;0.38;;;16.70;99.90;;;;;;5072434;28;20090;-51
2023/08/02 01:32:27;;;;;;;0.38;0.38;;;16.00;99.90;;;;;;5071618;28;20040;-48
2023/08/02 01:34:53;;;;;;;0.30;0.30;;;15.10;99.90;;;;;;5072684;28;20040;-50
2023/08/02 01:37:19;;;;;;;0.77;0.30;;;16.80;99.90;;;;;;5072699;28;20028;-50
2023/08/02 01:39:44;;;;;;;1.85;0.20;;;18.40;99.90;;;;;;5072578;28;20078;-52
2023/08/02 01:42:11;;;;;;;0.22;0.22;;;16.70;99.90;;;;;;5072785;28;20032;-46
2023/08/02 01:44:36;;;;;;;1.85;0.40;;;16.70;99.90;;;;;;5072475;28;20024;-47
2023/08/02 01:47:02;;;;;;;1.00;0.50;;;16.70;99.90;;;;;;5072740;28;20495;-47
2023/08/02 01:49:28;;;;;;;0.40;0.22;;;16.90;99.90;;;;;;5072283;28;20035;-48
2023/08/02 01:51:53;;;;;;;0.55;0.30;;;14.90;99.90;;;;;;5071838;28;20017;-45
2023/08/02 01:54:19;;;;;;;0.20;0.20;;;16.70;99.90;;;;;;5072591;28;20032;-46
2023/08/02 01:56:45;;;;;;;0.77;0.38;;;18.40;99.90;;;;;;5072529;28;20059;-47
2023/08/02 01:59:12;;;;;;;0.73;0.40;;;17.10;99.90;;;;;;5072519;28;20056;-48
2023/08/02 02:01:38;;;;;;;2.95;0.60;;;16.50;99.90;;;;;;5072539;28;20099;-46
2023/08/02 02:04:03;;;;;;;0.40;0.30;;;16.80;99.90;;;;;;5072701;28;20029;-49
2023/08/02 02:06:29;;;;;;;0.75;0.50;;;17.90;99.90;;;;;;5072415;28;20032;-51
2023/08/02 02:08:55;;;;;;;0.55;0.30;;;17.50;99.90;;;;;;5072094;28;20033;-52
2023/08/02 02:11:20;;;;;;;1.13;0.38;;;15.20;99.90;;;;;;5071614;28;20025;-48
2023/08/02 02:13:46;;;;;;;0.73;0.25;;;17.30;99.90;;;;;;5071734;28;20020;-46
2023/08/02 02:16:12;;;;;;;0.20;0.20;;;17.10;99.90;;;;;;5071950;28;20040;-53
2023/08/02 02:18:37;;;;;;;0.30;0.30;;;16.80;99.90;;;;;;5071762;28;20115;-49
2023/08/02 02:21:03;;;;;;;0.30;0.30;;;17.40;99.90;;;;;;5071710;28;20024;-49
2023/08/02 02:23:28;;;;;;;0.22;0.20;;;16.90;99.90;;;;;;5069771;28;20054;-53
2023/08/02 02:25:55;;;;;;;0.30;0.30;;;16.80;99.90;;;;;;5071177;28;20123;-49
2023/08/02 02:28:20;;;;;;;1.73;0.75;;;17.00;99.90;;;;;;5071102;28;20486;-51
2023/08/02 02:30:46;;;;;;;0.47;0.32;;;17.10;99.90;;;;;;5071240;28;20037;-48
2023/08/02 02:33:12;;;;;;;0.20;0.20;;;14.80;99.90;;;;;;5071355;28;20070;-47
2023/08/02 02:35:37;;;;;;;0.30;0.30;;;16.90;99.90;;;;;;5071693;28;20436;-47
2023/08/02 02:38:03;;;;;;;0.43;0.43;;;17.10;99.90;;;;;;5071347;28;20151;-51
2023/08/02 02:40:28;;;;;;;1.08;0.20;;;17.60;99.90;;;;;;5070941;28;20104;-51
2023/08/02 02:42:54;;;;;;;0.93;0.30;;;17.00;99.90;;;;;;5071268;28;20029;-47
2023/08/02 02:45:19;;;;;;;0.45;0.17;;;17.30;99.90;;;;;;5071392;28;20377;-50
2023/08/02 02:47:45;;;;;;;0.20;0.20;;;14.70;99.90;;;;;;5071030;28;20037;-49
2023/08/02 02:50:11;;;;;;;2.40;0.20;;;14.50;99.90;;;;;;5071161;28;20029;-47
2023/08/02 02:52:36;;;;;;;0.20;0.20;;;17.10;99.90;;;;;;5070972;28;20051;-50
2023/08/02 02:55:02;;;;;;;3.70;0.80;;;17.80;99.90;;;;;;5071182;28;20052;-48
2023/08/02 02:57:28;;;;;;;3.17;0.40;;;17.20;99.90;;;;;;5070978;28;20021;-50
2023/08/02 02:59:53;;;;;;;2.40;0.30;;;17.50;99.90;;;;;;5070736;28;20025;-46
2023/08/02 03:02:19;;;;;;;0.20;0.20;;;20.30;99.90;;;;;;5071313;28;20029;-50
2023/08/02 03:04:45;;;;;;;3.40;0.40;;;17.40;99.90;;;;;;5070964;28;20024;-52
2023/08/02 03:07:10;;;;;;;1.92;0.47;;;17.40;99.90;;;;;;5071157;28;20073;-49
2023/08/02 03:09:36;;;;;;;2.42;0.60;;;17.40;99.90;;;;;;5070989;28;20029;-51
2023/08/02 03:12:01;;;;;;;1.95;0.40;;;17.50;99.90;;;;;;5070978;28;20020;-53
2023/08/02 03:14:27;;;;;;;0.98;0.30;;;17.50;99.90;;;;;;5070212;28;20035;-50
2023/08/02 03:16:53;;;;;;;4.95;0.40;;;17.50;99.90;;;;;;5070597;28;20124;-52
2023/08/02 03:19:18;;;;;;;2.45;0.40;;;17.50;99.90;;;;;;5070563;28;20025;-50
2023/08/02 03:21:45;;;;;;;1.95;0.32;;;16.60;99.90;;;;;;5070558;28;20021;-47
2023/08/02 03:24:10;;;;;;;3.40;0.43;;;17.60;99.90;;;;;;5070722;28;20028;-52
2023/08/02 03:26:36;;;;;;;1.08;0.40;;;17.30;99.90;;;;;;5070598;28;20496;-57
2023/08/02 03:29:01;;;;;;;2.17;0.43;;;17.60;99.90;;;;;;5070669;28;20117;-47
2023/08/02 03:31:27;;;;;;;5.07;0.60;;;17.60;99.90;;;;;;5070469;28;20101;-48
2023/08/02 03:33:52;;;;;;;3.67;0.70;;;17.60;99.90;;;;;;5070635;28;20536;-53
2023/08/02 03:36:18;;;;;;;7.05;1.13;;;17.60;99.90;;;;;;5070610;28;20086;-50
2023/08/02 03:38:44;;;;;;;3.13;0.65;;;17.60;99.90;;;;;;5070703;28;20059;-51
2023/08/02 03:41:09;;;;;;;6.80;0.80;;;17.50;99.90;;;;;;5070483;28;20052;-46
2023/08/02 03:43:35;;;;;;;5.75;0.98;;;17.50;99.90;;;;;;5070646;28;20511;-48
2023/08/02 03:46:02;;;;;;;7.07;1.58;;;17.50;99.90;;;;;;5070964;28;20032;-52
2023/08/02 03:48:28;;;;;;;19.52;2.10;;;17.50;99.90;;;;;;5069782;28;20759;-53
2023/08/02 03:50:56;;;;;;;2.67;1.17;;;17.30;99.90;;;;;;5069248;28;20477;-53
2023/08/02 03:53:21;;;;;;;6.03;1.40;;;16.90;99.90;;;;;;5070330;28;20542;-52
2023/08/02 03:55:47;;;;;;;10.15;1.58;;;14.90;99.90;;;;;;5069966;28;20036;-55
2023/08/02 03:58:12;;;;;;;13.73;1.75;;;17.50;99.90;;;;;;5070088;28;20389;-49
2023/08/02 04:00:38;;;;;;;5.53;1.70;;;17.10;99.90;;;;;;5070096;28;20020;-57
2023/08/02 04:03:04;;;;;;;9.73;3.08;;;;;;;;;;5069896;28;20392;-53
2023/08/02 04:05:30;;;;;;;8.65;1.70;;;16.60;99.90;;;;;;5070035;28;20480;-49
2023/08/02 04:07:55;;;;;;;5.85;1.65;;;14.50;99.90;;;;;;5069735;28;20036;-50
2023/08/02 04:10:21;;;;;;;14.68;1.67;;;17.20;99.90;;;;;;5070011;28;20028;-50
2023/08/02 04:12:50;;;;;;;15.98;2.50;;;17.70;99.90;;;;;;5066151;28;20462;-50
2023/08/02 04:15:16;;;;;;;7.10;1.88;;;17.60;99.90;;;;;;5058004;28;20032;-50
2023/08/02 04:17:42;;;;;;;6.30;1.85;;;18.80;99.90;;;;;;5069321;28;20032;-52
2023/08/02 04:20:08;;;;;;;7.80;1.33;;;20.10;99.90;;;;;;5068398;28;20100;-47
2023/08/02 04:22:34;;;;;;;11.32;1.92;;;16.20;99.90;;;;;;5069512;28;20029;-54
2023/08/02 04:24:59;;;;;;;11.27;1.73;;;14.70;99.90;;;;;;5068235;28;20016;-47
2023/08/02 04:27:25;;;;;;;8.95;1.70;;;16.50;99.90;;;;;;5068992;28;20090;-53
2023/08/02 04:29:51;;;;;;;8.35;1.55;;;;;;;;;;5069338;28;20050;-52
2023/08/02 04:32:16;;;;;;;7.10;1.60;;;17.30;99.90;;;;;;5069204;28;20041;-53
2023/08/02 04:34:42;;;;;;;8.10;1.38;;;17.40;99.90;;;;;;5066850;28;20029;-52
2023/08/02 04:37:08;;;;;;;9.90;1.75;;;17.50;99.90;;;;;;5069606;28;20052;-55
2023/08/02 04:39:33;;;;;;;5.35;0.98;;;15.20;99.90;;;;;;5068774;28;20025;-55
2023/08/02 04:42:01;;;;;;;4.05;0.82;;;17.70;99.90;;;;;;5069210;28;20025;-51
2023/08/02 04:44:28;;;;;;;3.55;0.77;;;18.70;99.90;;;;;;5069343;28;20056;-51
2023/08/02 04:46:53;;;;;;;1.45;0.52;;;17.20;99.90;;;;;;5069495;28;20029;-51
2023/08/02 04:49:19;;;;;;;2.38;0.60;;;17.80;99.90;;;;;;5068887;28;20366;-53
2023/08/02 04:51:44;;;;;;;1.58;0.47;;;17.60;99.90;;;;;;5069390;28;20416;-53
2023/08/02 04:54:10;;;;;;;1.40;0.50;;;18.10;99.90;;;;;;5068956;28;20434;-56
2023/08/02 04:56:37;;;;;;;9.15;0.60;;;15.70;99.90;;;;;;5069423;28;20055;-52
2023/08/02 04:59:05;;;;;;;4.38;0.52;;;17.40;99.90;;;;;;5069449;28;20025;-50
2023/08/02 05:01:31;;;;;;;3.72;0.77;;;16.80;99.90;;;;;;5069407;28;20384;-53
2023/08/02 05:03:57;;;;;;;2.10;0.38;;;17.40;99.90;;;;;;5073547;28;20032;-49
2023/08/02 05:06:22;;;;;;;2.40;0.60;;;17.70;99.90;;;;;;5073009;28;20033;-52
2023/08/02 05:08:48;;;;;;;0.75;0.30;;;17.50;99.90;;;;;;5070660;28;20043;-52
2023/08/02 05:11:14;;;;;;;3.75;0.63;;;17.40;99.90;;;;;;5070861;28;20024;-52
2023/08/02 05:13:40;;;;;;;5.53;0.88;;;;;;;;;;5071523;28;20020;-45
2023/08/02 05:16:11;;;;;;;3.58;1.00;;;18.70;99.90;;;;;;5071431;28;20098;-53
2023/08/02 05:18:37;;;;;;;6.40;0.82;;;;;;;;;;5069853;28;20078;-46
2023/08/02 05:21:13;;;;;;;5.88;1.23;;;17.20;99.90;;;;;;5071373;28;20032;-51
2023/08/02 05:23:39;;;;;;;12.82;1.42;;;16.70;99.90;;;;;;5072181;28;20017;-53
2023/08/02 05:26:06;;;;;;;5.55;1.38;;;18.50;99.90;;;;;;5071757;28;20024;-54
2023/08/02 05:28:32;;;;;;;7.05;1.63;;;17.40;99.90;;;;;;5071578;28;20042;-50
2023/08/02 05:30:58;;;;;;;15.07;1.77;;;16.90;99.90;;;;;;5071528;28;20460;-49
2023/08/02 05:33:23;;;;;;;5.75;1.10;;;17.00;99.90;;;;;;5071544;28;20052;-49
2023/08/02 05:35:49;;;;;;;7.53;1.30;;;16.90;99.90;;;;;;5071346;28;20020;-48
2023/08/02 05:38:15;;;;;;;10.82;1.27;;;17.50;99.90;;;;;;5071799;28;20131;-50
2023/08/02 05:40:41;;;;;;;10.50;1.65;;;;;;;;;;5072176;28;20023;-50
2023/08/02 05:43:06;;;;;;;5.30;1.27;;;18.00;99.90;;;;;;5073093;28;20485;-51
2023/08/02 05:45:33;;;;;;;8.45;1.10;;;17.20;99.90;;;;;;5072906;28;20039;-57
2023/08/02 05:47:59;;;;;;;10.43;1.40;;;17.20;99.90;;;;;;5072855;28;20040;-55
2023/08/02 05:50:25;;;;;;;7.50;1.52;;;16.90;99.90;;;;;;5072863;28;20025;-47
2023/08/02 05:52:51;;;;;;;12.45;1.85;;;17.10;99.90;;;;;;5072897;28;20484;-54
2023/08/02 05:55:17;;;;;;;9.10;1.77;;;16.90;99.90;;;;;;5071874;28;20044;-49
2023/08/02 05:57:43;;;;;;;15.00;1.83;;;16.90;99.90;;;;;;5072731;28;20134;-51
2023/08/02 06:00:09;;;;;;;7.25;1.50;;;16.90;99.90;;;;;;5072788;28;20021;-52
2023/08/02 06:02:35;;;;;;;5.78;1.23;;;16.90;99.90;;;;;;5072788;28;20434;-53
2023/08/02 06:05:02;;;;;;;8.50;1.45;;;17.00;99.90;;;;;;5072890;28;20036;-51
2023/08/02 06:07:27;;;;;;;12.00;1.90;;;16.80;99.90;;;;;;5072652;28;20047;-47
2023/08/02 06:09:53;;;;;;;8.10;1.40;;;;;;;;;;5072671;28;20389;-52
2023/08/02 06:12:19;;;;;;;5.30;1.00;;;14.30;99.90;;;;;;5072792;28;20028;-51
2023/08/02 06:14:44;;;;;;;12.48;1.98;;;17.40;99.90;;;;;;5071415;28;20210;-54
2023/08/02 06:17:10;;;;;;;12.10;1.67;;;;;;;;;;5072578;28;20031;-53
2023/08/02 06:19:36;;;;;;;10.75;1.23;;;16.90;99.90;;;;;;5071171;28;20028;-56
2023/08/02 06:22:02;;;;;;;8.80;0.93;;;17.20;99.90;;;;;;5072640;28;20025;-49
2023/08/02 06:24:27;;;;;;;14.70;1.75;;;17.20;99.90;;;;;;5072544;28;20115;-49
2023/08/02 06:26:53;;;;;;;8.85;1.52;;;16.90;99.90;;;;;;5072469;28;20032;-49
2023/08/02 06:29:19;;;;;;;7.70;1.23;;;;;;;;;;5072470;28;20086;-46
2023/08/02 06:31:44;;;;;;;6.53;1.38;;;18.00;99.90;;;;;;5072230;28;20408;-53
2023/08/02 06:34:10;;;;;;;9.80;1.55;;;16.80;99.90;;;;;;5072030;28;20155;-48
2023/08/02 06:36:38;;;;;;;16.20;1.50;;;16.30;99.90;;;;;;5072237;28;20029;-50
2023/08/02 06:39:04;;;;;;;11.05;2.35;;;14.70;99.90;;;;;;5072378;28;20123;-58
2023/08/02 06:41:30;;;;;;;7.45;1.48;;;16.80;99.90;;;;;;5072330;28;20028;-52
2023/08/02 06:43:56;;;;;;;11.20;2.22;;;;;;;;;;5070859;28;20091;-55
2023/08/02 06:46:21;;;;;;;10.23;1.92;;;18.90;99.90;;;;;;5071861;28;20357;-47
2023/08/02 06:48:47;;;;;;;7.75;0.98;;;18.10;99.90;;;;;;5071643;28;20070;-50
2023/08/02 06:51:13;;;;;;;11.35;1.27;;;14.90;99.90;;;;;;5072100;28;20035;-50
2023/08/02 06:53:39;;;;;;;9.90;1.25;;;17.80;99.90;;;;;;5071937;28;20028;-50
2023/08/02 06:56:16;;;;;;;10.60;1.60;;;18.50;99.90;;;;;;5072124;28;20158;-50
2023/08/02 06:58:42;;;;;;;11.35;1.55;;;17.80;99.90;;;;;;5072230;28;20093;-49
2023/08/02 07:01:15;;;;;;;10.90;1.95;;;18.00;99.90;;;;;;5071887;28;20021;-49
2023/08/02 07:03:41;;;;;;;10.98;1.80;;;15.30;99.90;;;;;;5071928;28;20048;-50
2023/08/02 07:06:15;;;;;;;10.73;1.75;;;17.80;99.90;;;;;;5071624;28;20094;-47
2023/08/02 07:08:41;;;;;;;8.35;1.58;;;19.40;99.90;;;;;;5070592;28;20043;-47
2023/08/02 07:11:08;;;;;;;7.35;1.20;;;17.70;99.90;;;;;;5071152;28;20149;-47
2023/08/02 07:13:36;;;;;;;5.30;1.98;;;19.30;99.90;;;;;;5071287;28;20025;-56
2023/08/02 07:16:02;;;;;;;12.15;1.65;;;17.50;99.90;;;;;;5071059;28;20036;-53
2023/08/02 07:18:28;;;;;;;7.10;1.52;;;15.40;99.90;;;;;;5071174;28;20020;-49
2023/08/02 07:20:53;;;;;;;5.38;1.27;;;18.40;99.90;;;;;;5071006;28;20107;-56
2023/08/02 07:23:20;;;;;;;5.75;1.17;;;19.10;99.90;;;;;;5071238;28;20112;-48
2023/08/02 07:25:45;;;;;;;8.07;1.67;;;19.40;99.90;;;;;;5070739;28;20123;-52
2023/08/02 07:28:11;;;;;;;8.93;1.45;;;19.10;99.90;;;;;;5070960;28;20793;-46
2023/08/02 07:30:37;;;;;;;7.03;0.90;;;19.60;99.90;;;;;;5070481;28;20024;-51
2023/08/02 07:33:02;;;;;;;9.45;1.33;;;20.10;99.90;;;;;;5070953;28;20063;-51
2023/08/02 07:35:28;;;;;;;5.40;1.10;;;19.90;99.90;;;;;;5067805;28;20111;-48
2023/08/02 07:37:54;;;;;;;7.05;3.28;;;20.40;99.90;;;;;;5070383;28;20103;-51
2023/08/02 07:40:19;;;;;;;9.57;1.77;;;21.90;99.90;;;;;;5070768;28;20060;-48
2023/08/02 07:42:46;;;;;;;8.68;1.02;;;21.30;99.90;;;;;;5070687;28;20041;-49
2023/08/02 07:45:12;;;;;;;5.25;1.00;;;21.20;99.90;;;;;;5070910;28;20021;-48
2023/08/02 07:47:38;;;;;;;11.10;1.38;;;21.40;99.90;;;;;;5069264;28;20489;-50
2023/08/02 07:50:05;;;;;;;10.23;2.15;;;21.70;99.90;;;;;;5070830;28;20027;-47
2023/08/02 07:52:31;;;;;;;8.57;1.45;;;23.60;99.90;;;;;;5070275;28;20066;-47
2023/08/02 07:54:57;;;;;;;8.23;1.38;;;19.90;99.90;;;;;;5070718;28;20024;-47
2023/08/02 07:57:30;;;;;;;7.25;1.10;;;22.00;99.90;;;;;;5069075;28;20385;-48
2023/08/02 07:59:57;;;;;;;8.75;1.58;;;22.10;99.90;;;;;;5070810;28;20111;-48
2023/08/02 08:02:23;;;;;;;3.88;1.20;;;22.00;99.90;;;;;;5069704;28;20500;-47
2023/08/02 08:04:48;;;;;;;6.60;1.00;;;22.10;99.90;;;;;;5070625;28;20024;-47
2023/08/02 08:07:14;;;;;;;6.85;1.40;;;21.60;99.90;;;;;;5068753;28;20032;-49
2023/08/02 08:09:40;;;;;;;9.57;1.42;;;21.10;99.90;;;;;;5069989;28;20025;-55
2023/08/02 08:12:06;;;;;;;8.52;1.08;;;21.30;99.90;;;;;;5070305;28;20024;-50
2023/08/02 08:14:33;;;;;;;9.07;1.10;;;21.40;99.90;;;;;;5070252;28;20024;-51
2023/08/02 08:17:00;;;;;;;6.57;1.30;;;21.40;99.90;;;;;;5070603;28;20466;-51
2023/08/02 08:19:30;;;;;;;9.13;1.42;;;21.00;99.90;;;;;;5070242;28;20066;-51
2023/08/02 08:21:56;;;;;;;9.45;1.48;;;20.40;99.90;;;;;;5070099;28;20492;-53
2023/08/02 08:24:21;;;;;;;5.53;1.33;;;19.80;99.90;;;;;;5069962;28;20036;-51
2023/08/02 08:26:47;;;;;;;8.98;1.77;;;19.40;99.90;;;;;;5070217;28;20077;-47
2023/08/02 08:29:13;;;;;;;9.77;1.70;;;19.10;99.90;;;;;;5070306;28;20051;-48
2023/08/02 08:31:38;;;;;;;6.75;1.35;;;19.40;99.90;;;;;;5069990;28;20028;-49
2023/08/02 08:34:04;;;;;;;5.38;1.30;;;20.00;99.90;;;;;;5069423;28;20093;-47
2023/08/02 08:36:30;;;;;;;7.20;1.10;;;20.60;99.90;;;;;;5069429;28;20020;-48
2023/08/02 08:38:58;;;;;;;7.40;1.00;;;21.00;99.90;;;;;;5067402;28;20115;-49
2023/08/02 08:41:24;;;;;;;8.80;1.07;;;20.70;99.90;;;;;;5070275;28;20067;-48
2023/08/02 08:43:50;;;;;;;4.70;1.00;;;20.20;99.90;;;;;;5069860;28;20297;-48
2023/08/02 08:46:16;;;;;;;6.38;1.30;;;19.90;99.90;;;;;;5069923;28;20021;-52
2023/08/02 08:48:42;;;;;;;6.43;1.33;;;19.80;99.90;;;;;;5069747;28;20033;-48
2023/08/02 08:51:12;;;;;;;10.20;1.40;;;19.80;99.90;;;;;;5069986;28;20028;-52
2023/08/02 08:53:42;;;;;;;8.65;1.40;;;19.90;99.90;;;;;;5069759;28;20474;-50
2023/08/02 08:56:09;;;;;;;7.38;1.73;;;19.70;99.90;;;;;;5069795;28;20025;-51
2023/08/02 08:58:37;;;;;;;7.05;1.13;;;19.50;99.90;;;;;;5068910;28;20052;-53
2023/08/02 09:01:04;;;;;;;6.13;1.00;;;19.60;99.90;;;;;;5070319;28;20047;-52
2023/08/02 09:03:30;;;;;;;8.45;0.90;;;20.20;99.90;;;;;;5069925;28;20028;-51
2023/08/02 09:06:03;;;;;;;9.60;0.75;;;20.50;99.90;;;;;;5069988;28;20016;-52
2023/08/02 09:08:29;;;;;;;5.95;1.23;;;21.20;99.90;;;;;;5069947;28;20032;-53
2023/08/02 09:10:55;;;;;;;6.65;1.05;;;21.60;99.90;;;;;;5069927;28;20025;-53
2023/08/02 09:13:25;;;;;;;6.25;1.42;;;22.10;99.90;;;;;;5068155;28;20078;-53
2023/08/02 09:16:11;;;;;;;5.03;0.77;;;21.70;99.90;;;;;;5068142;28;20488;-49
2023/08/02 09:18:42;;;;;;;9.82;1.10;;;21.50;99.90;;;;;;5068173;28;20028;-50
2023/08/02 09:21:09;;;;;;;6.07;1.00;;;21.20;99.90;;;;;;5062318;28;20587;-48
2023/08/02 09:23:35;;;;;;;7.13;1.35;;;21.10;99.90;;;;;;5068694;28;20021;-50
2023/08/02 09:26:11;;;;;;;7.05;1.13;;;20.90;99.90;;;;;;5068707;28;20025;-54
2023/08/02 09:28:37;;;;;;;7.65;1.52;;;20.90;99.90;;;;;;5069772;28;20102;-58
2023/08/02 09:31:33;;;;;;;6.50;0.95;;;21.40;99.90;;;;;;5069485;28;20226;-50
2023/08/02 09:33:59;;;;;;;8.18;1.63;;;21.90;99.90;;;;;;5052502;28;20071;-54
2023/08/02 09:36:29;;;;;;;6.13;1.40;;;21.80;99.90;;;;;;5070193;28;20025;-54
2023/08/02 09:38:56;;;;;;;7.97;1.65;;;21.70;99.90;;;;;;5069666;28;20043;-52
2023/08/02 09:41:23;;;;;;;6.40;1.60;;;21.10;99.90;;;;;;5069722;28;20028;-56
2023/08/02 09:43:51;;;;;;;5.60;0.80;;;20.80;99.90;;;;;;5069485;28;20062;-53
2023/08/02 09:46:33;;;;;;;9.15;1.30;;;20.70;99.90;;;;;;5068675;28;20035;-54
2023/08/02 09:48:59;;;;;;;5.43;1.25;;;20.50;99.90;;;;;;5071471;28;20043;-49
2023/08/02 09:51:55;;;;;;;4.78;1.02;;;20.00;99.90;;;;;;5073008;28;20035;-47
2023/08/02 09:54:20;;;;;;;7.80;1.23;;;19.20;99.90;;;;;;5055813;28;20060;-53
2023/08/02 09:56:46;;;;;;;7.03;1.08;;;19.00;99.90;;;;;;5070705;28;20059;-56
2023/08/02 09:59:13;;;;;;;3.67;0.70;;;18.90;99.90;;;;;;5058291;28;20032;-51
2023/08/02 10:01:39;;;;;;;3.28;0.90;;;18.80;99.90;;;;;;5068809;28;20040;-56
2023/08/02 10:04:08;;;;;;;6.22;0.90;;;19.00;99.90;;;;;;5072977;28;20024;-50
2023/08/02 10:06:37;;;;;;;8.63;2.35;;;19.40;99.90;;;;;;5072844;28;20489;-53
2023/08/02 10:09:05;;;;;;;;;;;20.10;99.90;;;;;;5073491;28;20032;-53
2023/08/02 10:11:58;;;;;;;5.20;0.95;;;21.10;99.90;;;;;;5073024;28;19904;-52
2023/08/02 10:14:24;;;;;;;4.70;0.70;;;21.70;99.90;;;;;;5068906;28;20047;-52
2023/08/02 10:16:52;;;;;;;2.85;0.63;;;22.40;99.90;;;;;;5073232;28;20027;-53
2023/08/02 10:19:18;;;;;;;4.95;1.30;;;22.50;99.90;;;;;;5072869;28;20051;-50
2023/08/02 10:21:45;;;;;;;5.38;0.95;;;22.70;99.90;;;;;;5072571;28;20071;-51
2023/08/02 10:24:12;;;;;;;7.63;0.77;;;22.80;99.90;;;;;;5064805;28;20028;-51
2023/08/02 10:26:38;;;;;;;6.25;1.05;;;23.20;99.90;;;;;;5072496;28;20035;-50
2023/08/02 10:29:05;;;;;;;2.65;0.85;;;23.20;99.90;;;;;;5072652;28;20037;-52
2023/08/02 10:31:31;;;;;;;3.13;0.88;;;23.00;99.90;;;;;;5072367;28;20473;-48
2023/08/02 10:33:57;;;;;;;2.83;0.57;;;22.40;99.90;;;;;;5072161;28;20675;-48
2023/08/02 10:36:23;;;;;;;3.00;0.47;;;21.90;99.90;;;;;;5071257;28;20029;-52
2023/08/02 10:38:53;;;;;;;5.70;1.05;;;21.40;99.90;;;;;;5070561;28;20028;-53
2023/08/02 10:41:25;;;;;;;8.00;1.10;;;21.30;99.90;;;;;;5071574;28;20028;-53
2023/08/02 10:43:53;;;;;;;6.13;0.90;;;21.10;99.90;;;;;;5060237;28;20090;-53
2023/08/02 10:46:22;;;;;;;5.13;1.13;;;21.20;99.90;;;;;;5072181;28;20055;-52
2023/08/02 10:48:48;;;;;;;6.20;0.77;;;21.10;99.90;;;;;;5072133;28;20048;-56
2023/08/02 10:51:26;;;;;;;3.58;0.70;;;20.90;99.90;;;;;;5072160;28;20032;-54
2023/08/02 10:54:11;;;;;;;6.57;1.17;;;20.30;99.90;;;;;;5071989;28;20493;-51
2023/08/02 10:56:52;;;;;;;8.15;1.50;;;20.00;99.90;;;;;;5060741;28;20418;-50
2023/08/02 10:59:35;;;;;;;4.28;1.33;;;19.90;99.90;;;;;;5071560;28;20032;-48
2023/08/02 11:02:09;;;;;;;12.52;1.48;;;19.80;99.90;;;;;;5072002;28;20460;-52
2023/08/02 11:04:37;;;;;;;12.20;2.25;;;20.20;99.90;;;;;;5071689;28;20454;-52
2023/08/02 11:07:12;;;;;;;7.82;1.45;;;20.30;99.90;;;;;;5071692;28;20090;-50
2023/08/02 11:09:38;;;;;;;9.20;1.30;;;20.10;99.90;;;;;;5071600;28;20039;-52
2023/08/02 11:12:11;;;;;;;10.60;1.60;;;19.90;99.90;;;;;;5071815;28;20020;-50
2023/08/02 11:14:38;;;;;;;7.80;1.58;;;19.70;99.90;;;;;;5071415;28;20032;-50
2023/08/02 11:17:04;;;;;;;11.85;1.88;;;19.50;99.90;;;;;;5071748;28;20051;-51
2023/08/02 11:19:31;;;;;;;11.45;1.60;;;19.30;99.90;;;;;;5071460;28;20021;-50
2023/08/02 11:21:59;;;;;;;11.85;2.45;;;19.10;99.90;;;;;;5071591;28;20074;-48
2023/08/02 11:24:25;;;;;;;9.57;1.55;;;19.00;99.90;;;;;;5070862;28;20020;-51
2023/08/02 11:26:57;;;;;;;8.98;1.63;;;18.70;99.90;;;;;;5071550;28;20040;-49
2023/08/02 11:29:24;;;;;;;5.43;0.98;;;18.80;99.90;;;;;;5071048;28;20029;-48
2023/08/02 11:31:53;;;;;;;8.52;1.40;;;18.70;99.90;;;;;;5069708;28;20122;-51
2023/08/02 11:34:19;;;;;;;7.38;1.17;;;18.50;99.90;;;;;;5071003;28;20877;-54
2023/08/02 11:36:46;;;;;;;8.13;1.65;;;18.30;99.90;;;;;;5071128;28;20024;-50
2023/08/02 11:39:15;;;;;;;8.70;1.30;;;18.20;99.90;;;;;;5071259;28;20031;-51
2023/08/02 11:41:41;;;;;;;4.38;1.75;;;18.10;99.90;;;;;;5071003;28;20016;-50
2023/08/02 11:44:17;;;;;;;4.65;1.13;;;18.00;99.90;;;;;;5070824;28;20426;-50
2023/08/02 11:46:44;;;;;;;4.18;0.90;;;17.90;99.90;;;;;;5070240;28;20528;-54
2023/08/02 11:49:09;;;;;;;4.60;0.93;;;17.80;99.90;;;;;;5070294;28;20039;-49
2023/08/02 11:51:41;;;;;;;7.35;1.13;;;17.80;99.90;;;;;;5070663;28;20032;-49
2023/08/02 11:54:08;;;;;;;6.72;1.65;;;17.60;99.90;;;;;;5069223;28;20389;-56
2023/08/02 11:56:34;;;;;;;5.75;1.17;;;17.50;99.90;;;;;;5070766;28;20017;-50
2023/08/02 11:59:00;;;;;;;6.50;1.48;;;17.50;99.90;;;;;;5062054;28;20432;-49
2023/08/02 12:01:26;;;;;;;8.68;1.25;;;17.40;99.90;;;;;;5059596;28;20356;-53
2023/08/02 12:04:00;;;;;;;8.75;1.65;;;17.40;99.90;;;;;;5071835;28;20099;-52
2023/08/02 12:06:27;;;;;;;6.50;1.45;;;17.30;99.90;;;;;;5066534;28;20039;-53
2023/08/02 12:08:56;;;;;;;3.67;0.88;;;17.20;99.90;;;;;;5076570;28;20047;-47
2023/08/02 12:11:22;;;;;;;4.38;1.00;;;17.10;99.90;;;;;;5071582;28;20027;-55
2023/08/02 12:13:48;;;;;;;7.70;1.05;;;17.10;99.90;;;;;;5090571;28;20028;-53
2023/08/02 12:16:15;;;;;;;4.45;0.93;;;17.00;99.90;;;;;;5090736;28;20032;-54
2023/08/02 12:18:54;;;;;;;6.90;1.17;;;16.90;99.90;;;;;;5090850;28;20020;-50
2023/08/02 12:21:21;;;;;;;11.45;1.40;;;17.00;99.90;;;;;;5090558;28;20036;-52
2023/08/02 12:23:47;;;;;;;8.95;1.38;;;17.00;99.90;;;;;;5090670;28;20031;-52
2023/08/02 12:26:30;;;;;;;3.20;1.25;;;17.00;99.90;;;;;;5090576;28;20024;-53
2023/08/02 12:28:56;;;;;;;6.35;1.33;;;17.00;99.90;;;;;;5090706;28;20036;-49
2023/08/02 12:31:21;;;;;;;3.58;0.90;;;17.00;99.90;;;;;;5079572;28;20020;-52
2023/08/02 12:33:48;;;;;;;4.55;1.17;;;17.00;99.90;;;;;;5070107;28;20043;-51
2023/08/02 12:36:28;;;;;;;5.18;0.70;;;17.00;99.90;;;;;;5069767;28;20101;-55
2023/08/02 12:38:55;;;;;;;3.25;0.68;;;16.90;99.90;;;;;;5069891;28;20032;-57
2023/08/02 12:41:21;;;;;;;3.10;0.77;;;16.90;99.90;;;;;;5070232;28;20024;-53
2023/08/02 12:43:47;;;;;;;3.22;0.88;;;16.90;99.90;;;;;;5070083;28;20539;-56
2023/08/02 12:46:13;;;;;;;5.55;0.82;;;16.80;99.90;;;;;;5070070;28;20025;-51
2023/08/02 12:48:39;;;;;;;4.28;0.80;;;16.90;99.90;;;;;;5070002;28;20044;-59